sensor_id;sensor_type;location;lat;lon;timestamp;temperature;humidity
30459;DHT22;17254;50.976;7.034;2023-04-03T00:00:04;1.30;99.90
30459;DHT22;17254;50.976;7.034;2023-04-03T00:00:12;1.30;99.90
30459;DHT22;17254;50.976;7.034;2023-04-03T00:00:19;1.30;99.90
30459;DHT22;17254;50.976;7.034;2023-04-03T00:00:25;1.30;99.90
30459;DHT22;17254;50.976;7.034;2023-04-03T00:00:31;1.30;99.90
30459;DHT22;17254;50.976;7.034;2023-04-03T00:00:37;1.30;99.90
30459;DHT22;17254;50.976;7.034;2023-04-03T00:00:43;1.30;99.90
30459;DHT22;17254;50.976;7.034;2023-04-03T00:00:50;1.30;99.90
30459;DHT22;17254;50.976;7.034;2023-04-03T00:00:56;1.30;99.90
30459;DHT22;17254;50.976;7.034;2023-04-03T00:01:02;1.20;99.90
30459;DHT22;17254;50.976;7.034;2023-04-03T00:01:08;1.30;99.90
30459;DHT22;17254;50.976;7.034;2023-04-03T00:01:15;1.20;99.90
30459;DHT22;17254;50.976;7.034;2023-04-03T00:01:21;1.20;99.90
30459;DHT22;17254;50.976;7.034;2023-04-03T00:01:28;1.20;99.90
30459;DHT22;17254;50.976;7.034;2023-04-03T00:01:35;1.20;99.90
30459;DHT22;17254;50.976;7.034;2023-04-03T00:01:41;1.20;99.90
30459;DHT22;17254;50.976;7.034;2023-04-03T00:01:47;1.20;99.90
30459;DHT22;17254;50.976;7.034;2023-04-03T00:01:53;1.20;99.90
30459;DHT22;17254;50.976;7.034;2023-04-03T00:01:59;1.20;99.90
30459;DHT22;17254;50.976;7.034;2023-04-03T00:02:05;1.20;99.90
30459;DHT22;17254;50.976;7.034;2023-04-03T00:02:11;1.20;99.90
30459;DHT22;17254;50.976;7.034;2023-04-03T00:02:17;1.20;99.90
30459;DHT22;17254;50.976;7.034;2023-04-03T00:02:23;1.20;99.90
30459;DHT22;17254;50.976;7.034;2023-04-03T00:02:29;1.20;99.90
30459;DHT22;17254;50.976;7.034;2023-04-03T00:02:35;1.20;99.90
30459;DHT22;17254;50.976;7.034;2023-04-03T00:02:42;1.20;99.90
30459;DHT22;17254;50.976;7.034;2023-04-03T00:02:48;1.20;99.90
30459;DHT22;17254;50.976;7.034;2023-04-03T00:02:54;1.20;99.90
30459;DHT22;17254;50.976;7.034;2023-04-03T00:03:00;1.20;99.90
30459;DHT22;17254;50.976;7.034;2023-04-03T00:03:05;1.20;99.90
30459;DHT22;17254;50.976;7.034;2023-04-03T00:03:12;1.20;99.90
30459;DHT22;17254;50.976;7.034;2023-04-03T00:03:18;1.20;99.90
30459;DHT22;17254;50.976;7.034;2023-04-03T00:03:24;1.20;99.90
30459;DHT22;17254;50.976;7.034;2023-04-03T00:03:31;1.20;99.90
30459;DHT22;17254;50.976;7.034;2023-04-03T00:03:37;1.20;99.90
30459;DHT22;17254;50.976;7.034;2023-04-03T00:03:43;1.20;99.90
30459;DHT22;17254;50.976;7.034;2023-04-03T00:03:50;1.20;99.90
30459;DHT22;17254;50.976;7.034;2023-04-03T00:03:57;1.20;99.90
30459;DHT22;17254;50.976;7.034;2023-04-03T00:04:03;1.20;99.90
30459;DHT22;17254;50.976;7.034;2023-04-03T00:04:09;1.20;99.90
30459;DHT22;17254;50.976;7.034;2023-04-03T00:04:15;1.20;99.90
30459;DHT22;17254;50.976;7.034;2023-04-03T00:04:21;1.20;99.90
30459;DHT22;17254;50.976;7.034;2023-04-03T00:04:27;1.20;99.90
30459;DHT22;17254;50.976;7.034;2023-04-03T00:04:33;1.20;99.90
30459;DHT22;17254;50.976;7.034;2023-04-03T00:04:39;1.10;99.90
30459;DHT22;17254;50.976;7.034;2023-04-03T00:04:45;1.20;99.90
30459;DHT22;17254;50.976;7.034;2023-04-03T00:04:51;1.20;99.90
30459;DHT22;17254;50.976;7.034;2023-04-03T00:04:58;1.10;99.90
30459;DHT22;17254;50.976;7.034;2023-04-03T00:05:05;1.20;99.90
30459;DHT22;17254;50.976;7.034;2023-04-03T00:05:11;1.20;99.90
30459;DHT22;17254;50.976;7.034;2023-04-03T00:05:17;1.20;99.90
30459;DHT22;17254;50.976;7.034;2023-04-03T00:05:23;1.10;99.90
30459;DHT22;17254;50.976;7.034;2023-04-03T00:05:29;1.20;99.90
30459;DHT22;17254;50.976;7.034;2023-04-03T00:05:35;1.10;99.90
30459;DHT22;17254;50.976;7.034;2023-04-03T00:05:41;1.20;99.90
30459;DHT22;17254;50.976;7.034;2023-04-03T00:05:47;1.20;99.90
30459;DHT22;17254;50.976;7.034;2023-04-03T00:05:54;1.10;99.90
30459;DHT22;17254;50.976;7.034;2023-04-03T00:06:00;1.20;99.90
30459;DHT22;17254;50.976;7.034;2023-04-03T00:06:06;1.10;99.90
30459;DHT22;17254;50.976;7.034;2023-04-03T00:06:14;1.20;99.90
30459;DHT22;17254;50.976;7.034;2023-04-03T00:06:21;1.10;99.90
30459;DHT22;17254;50.976;7.034;2023-04-03T00:06:27;1.10;99.90
30459;DHT22;17254;50.976;7.034;2023-04-03T00:06:33;1.10;99.90
30459;DHT22;17254;50.976;7.034;2023-04-03T00:06:40;1.10;99.90
30459;DHT22;17254;50.976;7.034;2023-04-03T00:06:46;1.10;99.90
30459;DHT22;17254;50.976;7.034;2023-04-03T00:06:52;1.10;99.90
30459;DHT22;17254;50.976;7.034;2023-04-03T00:06:58;1.10;99.90
30459;DHT22;17254;50.976;7.034;2023-04-03T00:07:04;1.10;99.90
30459;DHT22;17254;50.976;7.034;2023-04-03T00:07:10;1.10;99.90
30459;DHT22;17254;50.976;7.034;2023-04-03T00:07:18;1.10;99.90
30459;DHT22;17254;50.976;7.034;2023-04-03T00:07:24;1.10;99.90
30459;DHT22;17254;50.976;7.034;2023-04-03T00:07:30;1.10;99.90
30459;DHT22;17254;50.976;7.034;2023-04-03T00:07:38;1.10;99.90
30459;DHT22;17254;50.976;7.034;2023-04-03T00:07:44;1.10;99.90
30459;DHT22;17254;50.976;7.034;2023-04-03T00:07:50;1.10;99.90
30459;DHT22;17254;50.976;7.034;2023-04-03T00:07:56;1.10;99.90
30459;DHT22;17254;50.976;7.034;2023-04-03T00:08:02;1.10;99.90
30459;DHT22;17254;50.976;7.034;2023-04-03T00:08:10;1.10;99.90
30459;DHT22;17254;50.976;7.034;2023-04-03T00:08:16;1.10;99.90
30459;DHT22;17254;50.976;7.034;2023-04-03T00:08:22;1.10;99.90
30459;DHT22;17254;50.976;7.034;2023-04-03T00:08:28;1.10;99.90
30459;DHT22;17254;50.976;7.034;2023-04-03T00:08:36;1.00;99.90
30459;DHT22;17254;50.976;7.034;2023-04-03T00:08:42;1.10;99.90
30459;DHT22;17254;50.976;7.034;2023-04-03T00:08:49;1.10;99.90
30459;DHT22;17254;50.976;7.034;2023-04-03T00:08:55;1.00;99.90
30459;DHT22;17254;50.976;7.034;2023-04-03T00:09:02;1.10;99.90
30459;DHT22;17254;50.976;7.034;2023-04-03T00:09:08;1.10;99.90
30459;DHT22;17254;50.976;7.034;2023-04-03T00:09:14;1.00;99.90
30459;DHT22;17254;50.976;7.034;2023-04-03T00:09:20;1.10;99.90
30459;DHT22;17254;50.976;7.034;2023-04-03T00:09:26;1.10;99.90
30459;DHT22;17254;50.976;7.034;2023-04-03T00:09:32;1.00;99.90
30459;DHT22;17254;50.976;7.034;2023-04-03T00:09:38;1.00;99.90
30459;DHT22;17254;50.976;7.034;2023-04-03T00:09:44;1.00;99.90
30459;DHT22;17254;50.976;7.034;2023-04-03T00:09:50;1.00;99.90
30459;DHT22;17254;50.976;7.034;2023-04-03T00:09:56;1.00;99.90
30459;DHT22;17254;50.976;7.034;2023-04-03T00:10:03;1.00;99.90
30459;DHT22;17254;50.976;7.034;2023-04-03T00:10:09;1.00;99.90
30459;DHT22;17254;50.976;7.034;2023-04-03T00:10:16;1.00;99.90
30459;DHT22;17254;50.976;7.034;2023-04-03T00:10:22;1.00;99.90
30459;DHT22;17254;50.976;7.034;2023-04-03T00:10:28;1.00;99.90
30459;DHT22;17254;50.976;7.034;2023-04-03T00:10:35;1.00;99.90
30459;DHT22;17254;50.976;7.034;2023-04-03T00:10:41;1.00;99.90
30459;DHT22;17254;50.976;7.034;2023-04-03T00:10:48;1.00;99.90
30459;DHT22;17254;50.976;7.034;2023-04-03T00:10:54;1.00;99.90
30459;DHT22;17254;50.976;7.034;2023-04-03T00:11:00;1.00;99.90
30459;DHT22;17254;50.976;7.034;2023-04-03T00:11:06;1.00;99.90
30459;DHT22;17254;50.976;7.034;2023-04-03T00:11:13;1.00;99.90
30459;DHT22;17254;50.976;7.034;2023-04-03T00:11:19;1.00;99.90
30459;DHT22;17254;50.976;7.034;2023-04-03T00:11:26;1.00;99.90
30459;DHT22;17254;50.976;7.034;2023-04-03T00:11:33;0.90;99.90
30459;DHT22;17254;50.976;7.034;2023-04-03T00:11:39;0.90;99.90
30459;DHT22;17254;50.976;7.034;2023-04-03T00:11:46;1.00;99.90
30459;DHT22;17254;50.976;7.034;2023-04-03T00:11:51;1.00;99.90
30459;DHT22;17254;50.976;7.034;2023-04-03T00:11:57;1.00;99.90
30459;DHT22;17254;50.976;7.034;2023-04-03T00:12:03;1.00;99.90
30459;DHT22;17254;50.976;7.034;2023-04-03T00:12:09;1.00;99.90
30459;DHT22;17254;50.976;7.034;2023-04-03T00:12:16;1.00;99.90
30459;DHT22;17254;50.976;7.034;2023-04-03T00:12:22;0.90;99.90
30459;DHT22;17254;50.976;7.034;2023-04-03T00:12:28;0.90;99.90
30459;DHT22;17254;50.976;7.034;2023-04-03T00:12:34;0.90;99.90
30459;DHT22;17254;50.976;7.034;2023-04-03T00:12:40;0.90;99.90
30459;DHT22;17254;50.976;7.034;2023-04-03T00:12:45;0.90;99.90
30459;DHT22;17254;50.976;7.034;2023-04-03T00:12:51;0.90;99.90
30459;DHT22;17254;50.976;7.034;2023-04-03T00:12:57;0.90;99.90
30459;DHT22;17254;50.976;7.034;2023-04-03T00:13:05;0.90;99.90
30459;DHT22;17254;50.976;7.034;2023-04-03T00:13:11;0.90;99.90
30459;DHT22;17254;50.976;7.034;2023-04-03T00:13:17;0.90;99.90
30459;DHT22;17254;50.976;7.034;2023-04-03T00:13:23;0.90;99.90
30459;DHT22;17254;50.976;7.034;2023-04-03T00:13:30;0.90;99.90
30459;DHT22;17254;50.976;7.034;2023-04-03T00:13:36;0.90;99.90
30459;DHT22;17254;50.976;7.034;2023-04-03T00:13:42;0.90;99.90
30459;DHT22;17254;50.976;7.034;2023-04-03T00:13:48;0.90;99.90
30459;DHT22;17254;50.976;7.034;2023-04-03T00:13:54;0.90;99.90
30459;DHT22;17254;50.976;7.034;2023-04-03T00:14:00;0.90;99.90
30459;DHT22;17254;50.976;7.034;2023-04-03T00:14:06;0.90;99.90
30459;DHT22;17254;50.976;7.034;2023-04-03T00:14:13;0.90;99.90
30459;DHT22;17254;50.976;7.034;2023-04-03T00:14:19;0.90;99.90
30459;DHT22;17254;50.976;7.034;2023-04-03T00:14:25;0.90;99.90
30459;DHT22;17254;50.976;7.034;2023-04-03T00:14:33;0.90;99.90
30459;DHT22;17254;50.976;7.034;2023-04-03T00:14:38;0.90;99.90
30459;DHT22;17254;50.976;7.034;2023-04-03T00:14:44;0.90;99.90
30459;DHT22;17254;50.976;7.034;2023-04-03T00:14:50;0.90;99.90
30459;DHT22;17254;50.976;7.034;2023-04-03T00:14:56;0.90;99.90
30459;DHT22;17254;50.976;7.034;2023-04-03T00:15:03;0.90;99.90
30459;DHT22;17254;50.976;7.034;2023-04-03T00:15:09;0.90;99.90
30459;DHT22;17254;50.976;7.034;2023-04-03T00:15:15;0.90;99.90
30459;DHT22;17254;50.976;7.034;2023-04-03T00:15:21;0.90;99.90
30459;DHT22;17254;50.976;7.034;2023-04-03T00:15:27;0.90;99.90
30459;DHT22;17254;50.976;7.034;2023-04-03T00:15:34;0.80;99.90
30459;DHT22;17254;50.976;7.034;2023-04-03T00:15:40;0.90;99.90
30459;DHT22;17254;50.976;7.034;2023-04-03T00:15:46;0.90;99.90
30459;DHT22;17254;50.976;7.034;2023-04-03T00:15:54;0.90;99.90
30459;DHT22;17254;50.976;7.034;2023-04-03T00:15:59;0.90;99.90
30459;DHT22;17254;50.976;7.034;2023-04-03T00:16:06;0.90;99.90
30459;DHT22;17254;50.976;7.034;2023-04-03T00:16:12;0.80;99.90
30459;DHT22;17254;50.976;7.034;2023-04-03T00:16:18;0.80;99.90
30459;DHT22;17254;50.976;7.034;2023-04-03T00:16:24;0.80;99.90
30459;DHT22;17254;50.976;7.034;2023-04-03T00:16:30;0.80;99.90
30459;DHT22;17254;50.976;7.034;2023-04-03T00:16:36;0.80;99.90
30459;DHT22;17254;50.976;7.034;2023-04-03T00:16:42;0.80;99.90
30459;DHT22;17254;50.976;7.034;2023-04-03T00:16:48;0.80;99.90
30459;DHT22;17254;50.976;7.034;2023-04-03T00:16:54;0.80;99.90
30459;DHT22;17254;50.976;7.034;2023-04-03T00:16:59;0.80;99.90
30459;DHT22;17254;50.976;7.034;2023-04-03T00:17:05;0.80;99.90
30459;DHT22;17254;50.976;7.034;2023-04-03T00:17:11;0.80;99.90
30459;DHT22;17254;50.976;7.034;2023-04-03T00:17:18;0.80;99.90
30459;DHT22;17254;50.976;7.034;2023-04-03T00:17:25;0.80;99.90
30459;DHT22;17254;50.976;7.034;2023-04-03T00:17:31;0.80;99.90
30459;DHT22;17254;50.976;7.034;2023-04-03T00:17:37;0.80;99.90
30459;DHT22;17254;50.976;7.034;2023-04-03T00:17:43;0.80;99.90
30459;DHT22;17254;50.976;7.034;2023-04-03T00:17:49;0.80;99.90
30459;DHT22;17254;50.976;7.034;2023-04-03T00:17:55;0.80;99.90
30459;DHT22;17254;50.976;7.034;2023-04-03T00:18:01;0.80;99.90
30459;DHT22;17254;50.976;7.034;2023-04-03T00:18:07;0.80;99.90
30459;DHT22;17254;50.976;7.034;2023-04-03T00:18:13;0.70;99.90
30459;DHT22;17254;50.976;7.034;2023-04-03T00:18:19;0.80;99.90
30459;DHT22;17254;50.976;7.034;2023-04-03T00:18:26;0.70;99.90
30459;DHT22;17254;50.976;7.034;2023-04-03T00:18:32;0.80;99.90
30459;DHT22;17254;50.976;7.034;2023-04-03T00:18:39;0.70;99.90
30459;DHT22;17254;50.976;7.034;2023-04-03T00:18:45;0.80;99.90
30459;DHT22;17254;50.976;7.034;2023-04-03T00:18:52;0.80;99.90
30459;DHT22;17254;50.976;7.034;2023-04-03T00:18:58;0.80;99.90
30459;DHT22;17254;50.976;7.034;2023-04-03T00:19:04;0.80;99.90
30459;DHT22;17254;50.976;7.034;2023-04-03T00:19:10;0.70;99.90
30459;DHT22;17254;50.976;7.034;2023-04-03T00:19:17;0.80;99.90
30459;DHT22;17254;50.976;7.034;2023-04-03T00:19:23;0.70;99.90
30459;DHT22;17254;50.976;7.034;2023-04-03T00:19:29;0.80;99.90
30459;DHT22;17254;50.976;7.034;2023-04-03T00:19:35;0.70;99.90
30459;DHT22;17254;50.976;7.034;2023-04-03T00:19:40;0.80;99.90
30459;DHT22;17254;50.976;7.034;2023-04-03T00:19:46;0.70;99.90
30459;DHT22;17254;50.976;7.034;2023-04-03T00:19:52;0.80;99.90
30459;DHT22;17254;50.976;7.034;2023-04-03T00:19:58;0.80;99.90
30459;DHT22;17254;50.976;7.034;2023-04-03T00:20:05;0.70;99.90
30459;DHT22;17254;50.976;7.034;2023-04-03T00:20:11;0.70;99.90
30459;DHT22;17254;50.976;7.034;2023-04-03T00:20:17;0.70;99.90
30459;DHT22;17254;50.976;7.034;2023-04-03T00:20:23;0.70;99.90
30459;DHT22;17254;50.976;7.034;2023-04-03T00:20:30;0.70;99.90
30459;DHT22;17254;50.976;7.034;2023-04-03T00:20:37;0.70;99.90
30459;DHT22;17254;50.976;7.034;2023-04-03T00:20:43;0.70;99.90
30459;DHT22;17254;50.976;7.034;2023-04-03T00:20:49;0.70;99.90
30459;DHT22;17254;50.976;7.034;2023-04-03T00:20:55;0.60;99.90
30459;DHT22;17254;50.976;7.034;2023-04-03T00:21:01;0.60;99.90
30459;DHT22;17254;50.976;7.034;2023-04-03T00:21:09;0.60;99.90
30459;DHT22;17254;50.976;7.034;2023-04-03T00:21:15;0.60;99.90
30459;DHT22;17254;50.976;7.034;2023-04-03T00:21:21;0.60;99.90
30459;DHT22;17254;50.976;7.034;2023-04-03T00:21:27;0.60;99.90
30459;DHT22;17254;50.976;7.034;2023-04-03T00:21:33;0.60;99.90
30459;DHT22;17254;50.976;7.034;2023-04-03T00:21:39;0.60;99.90
30459;DHT22;17254;50.976;7.034;2023-04-03T00:21:45;0.60;99.90
30459;DHT22;17254;50.976;7.034;2023-04-03T00:21:51;0.60;99.90
30459;DHT22;17254;50.976;7.034;2023-04-03T00:21:59;0.60;99.90
30459;DHT22;17254;50.976;7.034;2023-04-03T00:22:04;0.60;99.90
30459;DHT22;17254;50.976;7.034;2023-04-03T00:22:10;0.60;99.90
30459;DHT22;17254;50.976;7.034;2023-04-03T00:22:16;0.60;99.90
30459;DHT22;17254;50.976;7.034;2023-04-03T00:22:23;0.60;99.90
30459;DHT22;17254;50.976;7.034;2023-04-03T00:22:31;0.60;99.90
30459;DHT22;17254;50.976;7.034;2023-04-03T00:22:39;0.60;99.90
30459;DHT22;17254;50.976;7.034;2023-04-03T00:22:44;0.60;99.90
30459;DHT22;17254;50.976;7.034;2023-04-03T00:22:51;0.50;99.90
30459;DHT22;17254;50.976;7.034;2023-04-03T00:22:57;0.50;99.90
30459;DHT22;17254;50.976;7.034;2023-04-03T00:23:03;0.50;99.90
30459;DHT22;17254;50.976;7.034;2023-04-03T00:23:09;0.60;99.90
30459;DHT22;17254;50.976;7.034;2023-04-03T00:23:15;0.50;99.90
30459;DHT22;17254;50.976;7.034;2023-04-03T00:23:21;0.50;99.90
30459;DHT22;17254;50.976;7.034;2023-04-03T00:23:29;0.50;99.90
30459;DHT22;17254;50.976;7.034;2023-04-03T00:23:35;0.50;99.90
30459;DHT22;17254;50.976;7.034;2023-04-03T00:23:41;0.50;99.90
30459;DHT22;17254;50.976;7.034;2023-04-03T00:23:47;0.50;99.90
30459;DHT22;17254;50.976;7.034;2023-04-03T00:23:53;0.50;99.90
30459;DHT22;17254;50.976;7.034;2023-04-03T00:23:59;0.50;99.90
30459;DHT22;17254;50.976;7.034;2023-04-03T00:24:06;0.50;99.90
30459;DHT22;17254;50.976;7.034;2023-04-03T00:24:12;0.50;99.90
30459;DHT22;17254;50.976;7.034;2023-04-03T00:24:17;0.50;99.90
30459;DHT22;17254;50.976;7.034;2023-04-03T00:24:24;0.50;99.90
30459;DHT22;17254;50.976;7.034;2023-04-03T00:24:29;0.50;99.90
30459;DHT22;17254;50.976;7.034;2023-04-03T00:24:35;0.50;99.90
30459;DHT22;17254;50.976;7.034;2023-04-03T00:24:41;0.50;99.90
30459;DHT22;17254;50.976;7.034;2023-04-03T00:24:47;0.50;99.90
30459;DHT22;17254;50.976;7.034;2023-04-03T00:24:53;0.50;99.90
30459;DHT22;17254;50.976;7.034;2023-04-03T00:24:59;0.50;99.90
30459;DHT22;17254;50.976;7.034;2023-04-03T00:25:06;0.50;99.90
30459;DHT22;17254;50.976;7.034;2023-04-03T00:25:12;0.50;99.90
30459;DHT22;17254;50.976;7.034;2023-04-03T00:25:18;0.50;99.90
30459;DHT22;17254;50.976;7.034;2023-04-03T00:25:25;0.50;99.90
30459;DHT22;17254;50.976;7.034;2023-04-03T00:25:32;0.40;99.90
30459;DHT22;17254;50.976;7.034;2023-04-03T00:25:38;0.50;99.90
30459;DHT22;17254;50.976;7.034;2023-04-03T00:25:44;0.50;99.90
30459;DHT22;17254;50.976;7.034;2023-04-03T00:25:50;0.50;99.90
30459;DHT22;17254;50.976;7.034;2023-04-03T00:25:56;0.50;99.90
30459;DHT22;17254;50.976;7.034;2023-04-03T00:26:02;0.50;99.90
30459;DHT22;17254;50.976;7.034;2023-04-03T00:26:08;0.40;99.90
30459;DHT22;17254;50.976;7.034;2023-04-03T00:26:14;0.40;99.90
30459;DHT22;17254;50.976;7.034;2023-04-03T00:26:20;0.40;99.90
30459;DHT22;17254;50.976;7.034;2023-04-03T00:26:26;0.40;99.90
30459;DHT22;17254;50.976;7.034;2023-04-03T00:26:32;0.40;99.90
30459;DHT22;17254;50.976;7.034;2023-04-03T00:26:39;0.40;99.90
30459;DHT22;17254;50.976;7.034;2023-04-03T00:26:46;0.40;99.90
30459;DHT22;17254;50.976;7.034;2023-04-03T00:26:53;0.40;99.90
30459;DHT22;17254;50.976;7.034;2023-04-03T00:26:59;0.40;99.90
30459;DHT22;17254;50.976;7.034;2023-04-03T00:27:05;0.40;99.90
30459;DHT22;17254;50.976;7.034;2023-04-03T00:27:10;0.40;99.90
30459;DHT22;17254;50.976;7.034;2023-04-03T00:27:16;0.40;99.90
30459;DHT22;17254;50.976;7.034;2023-04-03T00:27:22;0.40;99.90
30459;DHT22;17254;50.976;7.034;2023-04-03T00:27:28;0.40;99.90
30459;DHT22;17254;50.976;7.034;2023-04-03T00:27:36;0.40;99.90
30459;DHT22;17254;50.976;7.034;2023-04-03T00:27:42;0.40;99.90
30459;DHT22;17254;50.976;7.034;2023-04-03T00:27:48;0.40;99.90
30459;DHT22;17254;50.976;7.034;2023-04-03T00:27:54;0.40;99.90
30459;DHT22;17254;50.976;7.034;2023-04-03T00:28:00;0.40;99.90
30459;DHT22;17254;50.976;7.034;2023-04-03T00:28:06;0.40;99.90
30459;DHT22;17254;50.976;7.034;2023-04-03T00:28:12;0.40;99.90
30459;DHT22;17254;50.976;7.034;2023-04-03T00:28:19;0.50;99.90
30459;DHT22;17254;50.976;7.034;2023-04-03T00:28:24;0.50;99.90
30459;DHT22;17254;50.976;7.034;2023-04-03T00:28:32;0.50;99.90
30459;DHT22;17254;50.976;7.034;2023-04-03T00:28:38;0.40;99.90
30459;DHT22;17254;50.976;7.034;2023-04-03T00:28:44;0.50;99.90
30459;DHT22;17254;50.976;7.034;2023-04-03T00:28:50;0.50;99.90
30459;DHT22;17254;50.976;7.034;2023-04-03T00:28:56;0.50;99.90
30459;DHT22;17254;50.976;7.034;2023-04-03T00:29:02;0.50;99.90
30459;DHT22;17254;50.976;7.034;2023-04-03T00:29:08;0.60;99.90
30459;DHT22;17254;50.976;7.034;2023-04-03T00:29:14;0.50;99.90
30459;DHT22;17254;50.976;7.034;2023-04-03T00:29:20;0.50;99.90
30459;DHT22;17254;50.976;7.034;2023-04-03T00:29:26;0.50;99.90
30459;DHT22;17254;50.976;7.034;2023-04-03T00:29:32;0.50;99.90
30459;DHT22;17254;50.976;7.034;2023-04-03T00:29:37;0.50;99.90
30459;DHT22;17254;50.976;7.034;2023-04-03T00:29:43;0.50;99.90
30459;DHT22;17254;50.976;7.034;2023-04-03T00:29:49;0.60;99.90
30459;DHT22;17254;50.976;7.034;2023-04-03T00:29:56;0.60;99.90
30459;DHT22;17254;50.976;7.034;2023-04-03T00:30:02;0.60;99.90
30459;DHT22;17254;50.976;7.034;2023-04-03T00:30:13;0.60;99.90
30459;DHT22;17254;50.976;7.034;2023-04-03T00:30:21;0.60;99.90
30459;DHT22;17254;50.976;7.034;2023-04-03T00:30:27;0.50;99.90
30459;DHT22;17254;50.976;7.034;2023-04-03T00:30:33;0.60;99.90
30459;DHT22;17254;50.976;7.034;2023-04-03T00:30:39;0.50;99.90
30459;DHT22;17254;50.976;7.034;2023-04-03T00:30:45;0.50;99.90
30459;DHT22;17254;50.976;7.034;2023-04-03T00:30:52;0.50;99.90
30459;DHT22;17254;50.976;7.034;2023-04-03T00:30:58;0.50;99.90
30459;DHT22;17254;50.976;7.034;2023-04-03T00:31:05;0.50;99.90
30459;DHT22;17254;50.976;7.034;2023-04-03T00:31:11;0.50;99.90
30459;DHT22;17254;50.976;7.034;2023-04-03T00:31:20;0.50;99.90
30459;DHT22;17254;50.976;7.034;2023-04-03T00:31:26;0.60;99.90
30459;DHT22;17254;50.976;7.034;2023-04-03T00:31:32;0.60;99.90
30459;DHT22;17254;50.976;7.034;2023-04-03T00:31:38;0.50;99.90
30459;DHT22;17254;50.976;7.034;2023-04-03T00:31:44;0.60;99.90
30459;DHT22;17254;50.976;7.034;2023-04-03T00:31:50;0.60;99.90
30459;DHT22;17254;50.976;7.034;2023-04-03T00:31:56;0.60;99.90
30459;DHT22;17254;50.976;7.034;2023-04-03T00:32:02;0.60;99.90
30459;DHT22;17254;50.976;7.034;2023-04-03T00:32:09;0.60;99.90
30459;DHT22;17254;50.976;7.034;2023-04-03T00:32:15;0.60;99.90
30459;DHT22;17254;50.976;7.034;2023-04-03T00:32:22;0.60;99.90
30459;DHT22;17254;50.976;7.034;2023-04-03T00:32:28;0.60;99.90
30459;DHT22;17254;50.976;7.034;2023-04-03T00:32:34;0.50;99.90
30459;DHT22;17254;50.976;7.034;2023-04-03T00:32:40;0.60;99.90
30459;DHT22;17254;50.976;7.034;2023-04-03T00:32:47;0.60;99.90
30459;DHT22;17254;50.976;7.034;2023-04-03T00:32:53;0.50;99.90
30459;DHT22;17254;50.976;7.034;2023-04-03T00:33:00;0.50;99.90
30459;DHT22;17254;50.976;7.034;2023-04-03T00:33:06;0.50;99.90
30459;DHT22;17254;50.976;7.034;2023-04-03T00:33:12;0.50;99.90
30459;DHT22;17254;50.976;7.034;2023-04-03T00:33:19;0.50;99.90
30459;DHT22;17254;50.976;7.034;2023-04-03T00:33:27;0.50;99.90
30459;DHT22;17254;50.976;7.034;2023-04-03T00:33:33;0.50;99.90
30459;DHT22;17254;50.976;7.034;2023-04-03T00:33:39;0.40;99.90
30459;DHT22;17254;50.976;7.034;2023-04-03T00:33:44;0.40;99.90
30459;DHT22;17254;50.976;7.034;2023-04-03T00:33:50;0.40;99.90
30459;DHT22;17254;50.976;7.034;2023-04-03T00:33:56;0.40;99.90
30459;DHT22;17254;50.976;7.034;2023-04-03T00:34:03;0.40;99.90
30459;DHT22;17254;50.976;7.034;2023-04-03T00:34:11;0.40;99.90
30459;DHT22;17254;50.976;7.034;2023-04-03T00:34:17;0.40;99.90
30459;DHT22;17254;50.976;7.034;2023-04-03T00:34:23;0.40;99.90
30459;DHT22;17254;50.976;7.034;2023-04-03T00:34:29;0.40;99.90
30459;DHT22;17254;50.976;7.034;2023-04-03T00:34:35;0.30;99.90
30459;DHT22;17254;50.976;7.034;2023-04-03T00:34:41;0.30;99.90
30459;DHT22;17254;50.976;7.034;2023-04-03T00:34:47;0.30;99.90
30459;DHT22;17254;50.976;7.034;2023-04-03T00:34:53;0.30;99.90
30459;DHT22;17254;50.976;7.034;2023-04-03T00:34:59;0.30;99.90
30459;DHT22;17254;50.976;7.034;2023-04-03T00:35:06;0.30;99.90
30459;DHT22;17254;50.976;7.034;2023-04-03T00:35:12;0.30;99.90
30459;DHT22;17254;50.976;7.034;2023-04-03T00:35:21;0.30;99.90
30459;DHT22;17254;50.976;7.034;2023-04-03T00:35:28;0.30;99.90
30459;DHT22;17254;50.976;7.034;2023-04-03T00:35:34;0.40;99.90
30459;DHT22;17254;50.976;7.034;2023-04-03T00:35:42;0.30;99.90
30459;DHT22;17254;50.976;7.034;2023-04-03T00:35:48;0.30;99.90
30459;DHT22;17254;50.976;7.034;2023-04-03T00:35:54;0.30;99.90
30459;DHT22;17254;50.976;7.034;2023-04-03T00:36:05;0.30;99.90
30459;DHT22;17254;50.976;7.034;2023-04-03T00:36:12;0.30;99.90
30459;DHT22;17254;50.976;7.034;2023-04-03T00:36:18;0.30;99.90
30459;DHT22;17254;50.976;7.034;2023-04-03T00:36:24;0.40;99.90
30459;DHT22;17254;50.976;7.034;2023-04-03T00:36:31;0.40;99.90
30459;DHT22;17254;50.976;7.034;2023-04-03T00:36:37;0.30;99.90
30459;DHT22;17254;50.976;7.034;2023-04-03T00:36:42;0.40;99.90
30459;DHT22;17254;50.976;7.034;2023-04-03T00:36:48;0.40;99.90
30459;DHT22;17254;50.976;7.034;2023-04-03T00:36:55;0.40;99.90
30459;DHT22;17254;50.976;7.034;2023-04-03T00:37:01;0.40;99.90
30459;DHT22;17254;50.976;7.034;2023-04-03T00:37:07;0.40;99.90
30459;DHT22;17254;50.976;7.034;2023-04-03T00:37:14;0.40;99.90
30459;DHT22;17254;50.976;7.034;2023-04-03T00:37:20;0.40;99.90
30459;DHT22;17254;50.976;7.034;2023-04-03T00:37:26;0.40;99.90
30459;DHT22;17254;50.976;7.034;2023-04-03T00:37:32;0.30;99.90
30459;DHT22;17254;50.976;7.034;2023-04-03T00:37:39;0.40;99.90
30459;DHT22;17254;50.976;7.034;2023-04-03T00:37:46;0.40;99.90
30459;DHT22;17254;50.976;7.034;2023-04-03T00:37:52;0.40;99.90
30459;DHT22;17254;50.976;7.034;2023-04-03T00:37:59;0.40;99.90
30459;DHT22;17254;50.976;7.034;2023-04-03T00:38:05;0.40;99.90
30459;DHT22;17254;50.976;7.034;2023-04-03T00:38:11;0.40;99.90
30459;DHT22;17254;50.976;7.034;2023-04-03T00:38:18;0.40;99.90
30459;DHT22;17254;50.976;7.034;2023-04-03T00:38:24;0.40;99.90
30459;DHT22;17254;50.976;7.034;2023-04-03T00:38:31;0.40;99.90
30459;DHT22;17254;50.976;7.034;2023-04-03T00:38:37;0.40;99.90
30459;DHT22;17254;50.976;7.034;2023-04-03T00:38:44;0.40;99.90
30459;DHT22;17254;50.976;7.034;2023-04-03T00:38:50;0.40;99.90
30459;DHT22;17254;50.976;7.034;2023-04-03T00:38:56;0.40;99.90
30459;DHT22;17254;50.976;7.034;2023-04-03T00:39:02;0.40;99.90
30459;DHT22;17254;50.976;7.034;2023-04-03T00:39:08;0.40;99.90
30459;DHT22;17254;50.976;7.034;2023-04-03T00:39:14;0.40;99.90
30459;DHT22;17254;50.976;7.034;2023-04-03T00:39:20;0.40;99.90
30459;DHT22;17254;50.976;7.034;2023-04-03T00:39:26;0.40;99.90
30459;DHT22;17254;50.976;7.034;2023-04-03T00:39:32;0.40;99.90
30459;DHT22;17254;50.976;7.034;2023-04-03T00:39:38;0.40;99.90
30459;DHT22;17254;50.976;7.034;2023-04-03T00:39:45;0.40;99.90
30459;DHT22;17254;50.976;7.034;2023-04-03T00:39:51;0.40;99.90
30459;DHT22;17254;50.976;7.034;2023-04-03T00:39:58;0.40;99.90
30459;DHT22;17254;50.976;7.034;2023-04-03T00:40:05;0.40;99.90
30459;DHT22;17254;50.976;7.034;2023-04-03T00:40:12;0.40;99.90
30459;DHT22;17254;50.976;7.034;2023-04-03T00:40:20;0.40;99.90
30459;DHT22;17254;50.976;7.034;2023-04-03T00:40:27;0.40;99.90